createdAt,value
2023-03-17T00:00:59.197Z,9.30
2023-03-17T00:01:59.272Z,9.30
2023-03-17T00:02:59.171Z,9.25
2023-03-17T00:03:59.175Z,9.24
2023-03-17T00:04:59.192Z,9.18
2023-03-17T00:05:59.222Z,9.10
2023-03-17T00:06:59.098Z,9.05
2023-03-17T00:07:59.130Z,9.09
2023-03-17T00:08:59.110Z,9.09
2023-03-17T00:09:59.156Z,9.06
2023-03-17T00:10:59.134Z,9.06
2023-03-17T00:11:59.152Z,9.09
2023-03-17T00:12:59.007Z,9.02
2023-03-17T00:13:59.081Z,8.96
2023-03-17T00:14:59.044Z,8.90
2023-03-17T00:15:59.041Z,8.90
2023-03-17T00:16:59.042Z,8.94
2023-03-17T00:17:59.175Z,8.96
2023-03-17T00:18:58.972Z,8.96
2023-03-17T00:19:59.004Z,8.96
2023-03-17T00:20:58.896Z,8.94
2023-03-17T00:21:58.949Z,8.93
2023-03-17T00:22:58.857Z,8.91
2023-03-17T00:23:59.196Z,8.84
2023-03-17T00:24:58.897Z,8.79
2023-03-17T00:25:58.918Z,8.76
2023-03-17T00:26:58.858Z,8.69
2023-03-17T00:27:58.835Z,8.60
2023-03-17T00:28:58.874Z,8.57
2023-03-17T00:29:58.918Z,8.55
2023-03-17T00:30:58.795Z,8.58
2023-03-17T00:31:58.856Z,8.63
2023-03-17T00:32:58.819Z,8.69
2023-03-17T00:33:58.747Z,8.72
2023-03-17T00:34:58.800Z,8.69
2023-03-17T00:35:58.827Z,8.66
2023-03-17T00:36:58.721Z,8.66
2023-03-17T00:37:58.697Z,8.69
2023-03-17T00:38:58.689Z,8.71
2023-03-17T00:39:58.692Z,8.72
2023-03-17T00:40:58.697Z,8.73
2023-03-17T00:41:58.701Z,8.78
2023-03-17T00:42:58.663Z,8.78
2023-03-17T00:43:58.685Z,8.78
2023-03-17T00:44:58.580Z,8.76
2023-03-17T00:45:58.603Z,8.78
2023-03-17T00:46:58.654Z,8.76
2023-03-17T00:47:58.561Z,8.78
2023-03-17T00:48:58.553Z,8.78
2023-03-17T00:49:58.583Z,8.79
2023-03-17T00:50:58.553Z,8.84
2023-03-17T00:51:58.554Z,8.83
2023-03-17T00:52:58.515Z,8.79
2023-03-17T00:53:58.445Z,8.78
2023-03-17T00:54:58.490Z,8.79
2023-03-17T00:55:58.475Z,8.86
2023-03-17T00:56:58.502Z,8.88
2023-03-17T00:57:58.435Z,8.88
2023-03-17T00:58:58.437Z,8.84
2023-03-17T00:59:58.383Z,8.83
2023-03-17T01:00:58.485Z,8.84
2023-03-17T01:01:58.580Z,8.88
2023-03-17T01:02:58.382Z,8.91
2023-03-17T01:03:58.381Z,8.94
2023-03-17T01:05:05.668Z,8.91
2023-03-17T01:05:59.377Z,8.97
2023-03-17T01:06:58.265Z,8.97
2023-03-17T01:07:58.277Z,8.97
2023-03-17T01:08:58.350Z,9.02
2023-03-17T01:09:58.298Z,8.94
2023-03-17T01:10:58.223Z,8.91
2023-03-17T01:11:58.332Z,8.88
2023-03-17T01:12:58.255Z,8.87
2023-03-17T01:13:58.229Z,8.83
2023-03-17T01:14:58.301Z,8.79
2023-03-17T01:15:58.234Z,8.83
2023-03-17T01:16:58.878Z,8.84
2023-03-17T01:17:58.163Z,8.84
2023-03-17T01:18:58.152Z,8.87
2023-03-17T01:19:58.149Z,8.87
2023-03-17T01:20:58.153Z,8.87
2023-03-17T01:21:58.219Z,8.88
2023-03-17T01:22:58.098Z,8.90
2023-03-17T01:23:58.071Z,8.86
2023-03-17T01:24:58.071Z,8.71
2023-03-17T01:25:58.041Z,8.63
2023-03-17T01:26:58.042Z,8.66
2023-03-17T01:27:58.077Z,8.76
2023-03-17T01:28:58.055Z,8.81
2023-03-17T01:29:58.064Z,8.84
2023-03-17T01:30:57.986Z,8.86
2023-03-17T01:31:58.084Z,8.86
2023-03-17T01:32:58.134Z,8.86
2023-03-17T01:33:58.020Z,8.81
2023-03-17T01:34:57.948Z,8.81
2023-03-17T01:35:57.993Z,8.81
2023-03-17T01:36:57.929Z,8.78
2023-03-17T01:37:57.916Z,8.76
2023-03-17T01:38:57.955Z,8.66
2023-03-17T01:39:57.916Z,8.66
2023-03-17T01:40:57.799Z,8.71
2023-03-17T01:41:57.852Z,8.72
2023-03-17T01:42:57.805Z,8.76
2023-03-17T01:43:57.775Z,8.76
2023-03-17T01:44:57.832Z,8.83
2023-03-17T01:45:57.948Z,8.79
2023-03-17T01:46:57.798Z,8.81
2023-03-17T01:47:57.754Z,8.84
2023-03-17T01:48:57.748Z,8.86
2023-03-17T01:49:57.707Z,8.81
2023-03-17T01:50:57.732Z,8.86
2023-03-17T01:51:57.735Z,8.73
2023-03-17T01:52:57.669Z,8.73
2023-03-17T01:53:57.705Z,8.75
2023-03-17T01:54:57.655Z,8.81
2023-03-17T01:55:57.657Z,8.90
2023-03-17T01:56:57.665Z,8.91
2023-03-17T01:57:57.658Z,8.94
2023-03-17T01:58:57.566Z,8.96
2023-03-17T01:59:57.633Z,8.97
2023-03-17T02:00:57.678Z,8.97
2023-03-17T02:01:57.569Z,9.02
2023-03-17T02:02:57.594Z,9.02
2023-03-17T02:03:57.543Z,8.97
2023-03-17T02:04:57.511Z,8.86
2023-03-17T02:05:57.536Z,8.75
2023-03-17T02:06:58.753Z,8.71
2023-03-17T02:07:57.511Z,8.68
2023-03-17T02:08:57.480Z,8.62
2023-03-17T02:09:57.457Z,8.62
2023-03-17T02:10:57.465Z,8.58
2023-03-17T02:11:57.463Z,8.58
2023-03-17T02:12:57.505Z,8.57
2023-03-17T02:13:57.372Z,8.57
2023-03-17T02:14:57.356Z,8.58
2023-03-17T02:15:57.350Z,8.57
2023-03-17T02:16:57.574Z,8.54
2023-03-17T02:17:57.316Z,8.53
2023-03-17T02:18:57.409Z,8.51
2023-03-17T02:19:57.204Z,8.47
2023-03-17T02:20:57.849Z,8.45
2023-03-17T02:21:57.181Z,8.51
2023-03-17T02:23:04.192Z,8.63
2023-03-17T02:24:06.341Z,8.78
2023-03-17T02:24:57.191Z,8.75
2023-03-17T02:25:57.147Z,8.75
2023-03-17T02:26:57.129Z,8.76
2023-03-17T02:27:57.119Z,8.78
2023-03-17T02:28:57.096Z,8.73
2023-03-17T02:29:57.061Z,8.71
2023-03-17T02:30:57.124Z,8.65
2023-03-17T02:31:57.049Z,8.62
2023-03-17T02:32:57.177Z,8.62
2023-03-17T02:33:57.107Z,8.60
2023-03-17T02:34:57.002Z,8.58
2023-03-17T02:35:57.140Z,8.58
2023-03-17T02:36:57.225Z,8.62
2023-03-17T02:37:56.936Z,8.62
2023-03-17T02:38:56.953Z,8.68
2023-03-17T02:39:56.950Z,8.68
2023-03-17T02:40:57.853Z,8.71
2023-03-17T02:41:56.983Z,8.73
2023-03-17T02:42:56.940Z,8.78
2023-03-17T02:43:56.904Z,8.79
2023-03-17T02:44:56.881Z,8.81
2023-03-17T02:45:56.915Z,8.79
2023-03-17T02:46:56.847Z,8.73
2023-03-17T02:47:56.846Z,8.75
2023-03-17T02:48:56.892Z,8.75
2023-03-17T02:49:56.831Z,8.75
2023-03-17T02:50:56.774Z,8.68
2023-03-17T02:51:56.786Z,8.63
2023-03-17T02:52:56.764Z,8.60
2023-03-17T02:53:56.749Z,8.54
2023-03-17T02:54:56.862Z,8.53
2023-03-17T02:55:56.724Z,8.60
2023-03-17T02:56:56.685Z,8.62
2023-03-17T02:57:56.691Z,8.63
2023-03-17T02:58:56.681Z,8.60
2023-03-17T02:59:56.720Z,8.57
2023-03-17T03:00:56.810Z,8.62
2023-03-17T03:01:56.608Z,8.62
2023-03-17T03:02:56.657Z,8.58
2023-03-17T03:03:56.606Z,8.55
2023-03-17T03:04:56.621Z,8.53
2023-03-17T03:05:56.640Z,8.47
2023-03-17T03:06:56.662Z,8.44
2023-03-17T03:07:56.666Z,8.42
2023-03-17T03:08:56.535Z,8.50
2023-03-17T03:09:56.538Z,8.51
2023-03-17T03:10:56.541Z,8.51
2023-03-17T03:11:56.525Z,8.53
2023-03-17T03:12:56.523Z,8.58
2023-03-17T03:13:56.484Z,8.60
2023-03-17T03:14:56.472Z,8.62
2023-03-17T03:15:56.498Z,8.63
2023-03-17T03:16:56.455Z,8.58
2023-03-17T03:17:56.444Z,8.55
2023-03-17T03:18:56.421Z,8.55
2023-03-17T03:19:56.423Z,8.58
2023-03-17T03:20:56.406Z,8.47
2023-03-17T03:21:56.394Z,8.48
2023-03-17T03:22:56.407Z,8.51
2023-03-17T03:23:56.380Z,8.50
2023-03-17T03:24:56.419Z,8.47
2023-03-17T03:25:56.342Z,8.44
2023-03-17T03:26:56.328Z,8.47
2023-03-17T03:27:56.294Z,8.45
2023-03-17T03:28:56.327Z,8.48
2023-03-17T03:29:56.290Z,8.48
2023-03-17T03:30:56.344Z,8.45
2023-03-17T03:31:56.312Z,8.45
2023-03-17T03:32:56.278Z,8.42
2023-03-17T03:33:56.195Z,8.36
2023-03-17T03:34:56.213Z,8.36
2023-03-17T03:35:56.155Z,8.35
2023-03-17T03:36:56.204Z,8.36
2023-03-17T03:37:56.150Z,8.32
2023-03-17T03:38:56.111Z,8.30
2023-03-17T03:39:56.149Z,8.25
2023-03-17T03:40:56.142Z,8.25
2023-03-17T03:41:56.099Z,8.29
2023-03-17T03:42:56.082Z,8.22
2023-03-17T03:43:56.137Z,8.21
2023-03-17T03:44:56.048Z,8.20
2023-03-17T03:45:56.017Z,8.17
2023-03-17T03:46:56.024Z,8.17
2023-03-17T03:47:55.984Z,8.14
2023-03-17T03:48:56.000Z,8.14
2023-03-17T03:49:55.989Z,8.14
2023-03-17T03:50:55.927Z,8.03
2023-03-17T03:51:55.922Z,7.97
2023-03-17T03:52:55.944Z,7.90
2023-03-17T03:53:55.920Z,7.82
2023-03-17T03:54:55.936Z,7.74
2023-03-17T03:55:55.967Z,7.67
2023-03-17T03:56:55.859Z,7.69
2023-03-17T03:57:55.824Z,7.75
2023-03-17T03:58:55.864Z,7.72
2023-03-17T03:59:55.829Z,7.75
2023-03-17T04:00:55.823Z,7.79
2023-03-17T04:01:55.810Z,7.79
2023-03-17T04:02:55.841Z,7.81
2023-03-17T04:03:55.792Z,7.78
2023-03-17T04:04:55.878Z,7.75
2023-03-17T04:05:55.733Z,7.72
2023-03-17T04:06:55.744Z,7.71
2023-03-17T04:07:55.747Z,7.63
2023-03-17T04:08:57.889Z,7.58
2023-03-17T04:09:55.750Z,7.55
2023-03-17T04:10:55.777Z,7.50
2023-03-17T04:11:55.700Z,7.50
2023-03-17T04:12:55.763Z,7.49
2023-03-17T04:13:55.779Z,7.42
2023-03-17T04:14:55.706Z,7.44
2023-03-17T04:15:55.741Z,7.50
2023-03-17T04:16:55.646Z,7.44
2023-03-17T04:17:55.700Z,7.42
2023-03-17T04:18:55.664Z,7.42
2023-03-17T04:19:55.677Z,7.42
2023-03-17T04:20:55.543Z,7.42
2023-03-17T04:21:55.533Z,7.40
2023-03-17T04:22:55.595Z,7.42
2023-03-17T04:23:55.561Z,7.40
2023-03-17T04:24:55.560Z,7.37
2023-03-17T04:25:55.501Z,7.37
2023-03-17T04:26:55.500Z,7.47
2023-03-17T04:27:55.448Z,7.56
2023-03-17T04:28:55.497Z,7.60
2023-03-17T04:29:55.499Z,7.58
2023-03-17T04:30:55.401Z,7.45
2023-03-17T04:31:55.558Z,7.41
2023-03-17T04:32:55.409Z,7.41
2023-03-17T04:33:55.395Z,7.49
2023-03-17T04:34:55.519Z,7.45
2023-03-17T04:35:55.366Z,7.45
2023-03-17T04:36:55.341Z,7.41
2023-03-17T04:37:55.409Z,7.38
2023-03-17T04:38:55.338Z,7.40
2023-03-17T04:39:55.326Z,7.38
2023-03-17T04:40:55.351Z,7.29
2023-03-17T04:41:55.277Z,7.29
2023-03-17T04:42:55.270Z,7.32
2023-03-17T04:43:55.307Z,7.26
2023-03-17T04:44:55.619Z,7.16
2023-03-17T04:45:55.314Z,7.12
2023-03-17T04:46:55.333Z,7.15
2023-03-17T04:47:55.230Z,7.09
2023-03-17T04:48:55.187Z,7.15
2023-03-17T04:49:55.221Z,7.12
2023-03-17T04:50:55.170Z,7.16
2023-03-17T04:51:55.158Z,7.17
2023-03-17T04:52:55.386Z,7.19
2023-03-17T04:53:55.202Z,7.23
2023-03-17T04:54:55.182Z,7.23
2023-03-17T04:55:55.092Z,7.20
2023-03-17T04:56:55.226Z,7.20
2023-03-17T04:57:55.077Z,7.24
2023-03-17T04:58:55.151Z,7.26
2023-03-17T04:59:55.174Z,7.34
2023-03-17T05:00:55.144Z,7.34
2023-03-17T05:01:55.143Z,7.31
2023-03-17T05:02:55.202Z,7.31
2023-03-17T05:03:55.065Z,7.32
2023-03-17T05:04:55.117Z,7.31
2023-03-17T05:05:55.036Z,7.29
2023-03-17T05:06:55.031Z,7.27
2023-03-17T05:07:55.018Z,7.24
2023-03-17T05:08:55.019Z,7.22
2023-03-17T05:09:54.978Z,7.17
2023-03-17T05:10:55.042Z,7.15
2023-03-17T05:11:54.959Z,7.13
2023-03-17T05:12:54.962Z,7.12
2023-03-17T05:13:54.900Z,7.09
2023-03-17T05:14:54.911Z,7.07
2023-03-17T05:15:54.914Z,7.09
2023-03-17T05:16:54.987Z,7.09
2023-03-17T05:17:54.930Z,7.07
2023-03-17T05:18:54.811Z,7.05
2023-03-17T05:19:54.869Z,7.08
2023-03-17T05:20:54.873Z,7.04
2023-03-17T05:21:54.858Z,7.07
2023-03-17T05:22:54.832Z,7.02
2023-03-17T05:23:55.107Z,7.01
2023-03-17T05:24:54.828Z,6.98
2023-03-17T05:25:54.793Z,6.97
2023-03-17T05:26:54.792Z,6.95
2023-03-17T05:27:54.802Z,6.86
2023-03-17T05:28:54.813Z,6.80
2023-03-17T05:29:54.678Z,6.84
2023-03-17T05:30:54.739Z,6.89
2023-03-17T05:31:54.684Z,6.94
2023-03-17T05:32:54.683Z,6.91
2023-03-17T05:33:54.763Z,6.86
2023-03-17T05:34:54.720Z,6.81
2023-03-17T05:35:54.854Z,6.80
2023-03-17T05:36:54.654Z,6.84
2023-03-17T05:37:54.663Z,6.89
2023-03-17T05:38:54.658Z,6.89
2023-03-17T05:39:54.640Z,6.91
2023-03-17T05:40:54.689Z,6.94
2023-03-17T05:41:54.642Z,6.89
2023-03-17T05:42:54.559Z,6.90
2023-03-17T05:43:54.502Z,6.95
2023-03-17T05:44:54.499Z,6.99
2023-03-17T05:45:54.614Z,7.01
2023-03-17T05:46:54.550Z,7.02
2023-03-17T05:47:54.478Z,6.99
2023-03-17T05:48:54.524Z,6.99
2023-03-17T05:49:54.570Z,6.98
2023-03-17T05:50:54.401Z,6.95
2023-03-17T05:51:54.435Z,6.98
2023-03-17T05:52:54.463Z,7.04
2023-03-17T05:53:54.439Z,7.08
2023-03-17T05:54:54.398Z,7.16
2023-03-17T05:55:54.374Z,7.20
2023-03-17T05:56:54.451Z,7.22
2023-03-17T05:57:54.358Z,7.26
2023-03-17T05:58:54.472Z,7.27
2023-03-17T05:59:54.411Z,7.29
2023-03-17T06:00:54.307Z,7.27
2023-03-17T06:01:54.297Z,7.32
2023-03-17T06:02:54.300Z,7.37
2023-03-17T06:03:54.260Z,7.35
2023-03-17T06:04:54.237Z,7.27
2023-03-17T06:05:54.225Z,7.24
2023-03-17T06:06:54.163Z,7.24
2023-03-17T06:07:56.517Z,7.35
2023-03-17T06:08:54.214Z,7.23
2023-03-17T06:09:54.177Z,7.27
2023-03-17T06:10:54.210Z,7.38
2023-03-17T06:11:54.089Z,7.49
2023-03-17T06:12:54.117Z,7.53
2023-03-17T06:13:54.056Z,7.53
2023-03-17T06:14:54.692Z,7.49
2023-03-17T06:15:54.073Z,7.41
2023-03-17T06:16:54.062Z,7.45
2023-03-17T06:17:54.088Z,7.49
2023-03-17T06:18:54.009Z,7.53
2023-03-17T06:19:53.993Z,7.60
2023-03-17T06:20:53.990Z,7.56
2023-03-17T06:21:53.955Z,7.58
2023-03-17T06:23:03.885Z,7.59
2023-03-17T06:23:54.922Z,7.66
2023-03-17T06:24:55.493Z,7.69
2023-03-17T06:25:53.910Z,7.74
2023-03-17T06:26:53.867Z,7.77
2023-03-17T06:27:53.898Z,7.79
2023-03-17T06:28:53.869Z,7.82
2023-03-17T06:29:53.860Z,7.82
2023-03-17T06:30:53.852Z,7.85
2023-03-17T06:31:53.868Z,7.84
2023-03-17T06:32:53.841Z,7.79
2023-03-17T06:33:53.797Z,7.79
2023-03-17T06:34:53.840Z,7.82
2023-03-17T06:35:53.826Z,7.84
2023-03-17T06:36:53.747Z,7.85
2023-03-17T06:37:53.723Z,7.90
2023-03-17T06:38:53.758Z,7.92
2023-03-17T06:39:53.885Z,7.97
2023-03-17T06:40:53.689Z,8.00
2023-03-17T06:41:53.702Z,8.03
2023-03-17T06:42:53.661Z,8.08
2023-03-17T06:43:53.646Z,8.11
2023-03-17T06:44:53.680Z,8.12
2023-03-17T06:45:53.685Z,8.17
2023-03-17T06:46:53.673Z,8.17
2023-03-17T06:47:53.652Z,8.11
2023-03-17T06:48:53.665Z,8.11
2023-03-17T06:49:53.626Z,8.07
2023-03-17T06:50:53.562Z,8.07
2023-03-17T06:51:53.626Z,8.08
2023-03-17T06:52:53.610Z,8.08
2023-03-17T06:53:53.487Z,8.07
2023-03-17T06:54:53.556Z,8.04
2023-03-17T06:55:53.541Z,8.08
2023-03-17T06:56:53.495Z,8.11
2023-03-17T06:57:53.470Z,8.14
2023-03-17T06:58:53.512Z,8.15
2023-03-17T06:59:53.475Z,8.12
2023-03-17T07:00:53.424Z,8.14
2023-03-17T07:01:53.444Z,8.12
2023-03-17T07:02:53.403Z,8.14
2023-03-17T07:03:53.401Z,8.26
2023-03-17T07:04:53.643Z,8.35
2023-03-17T07:05:53.372Z,8.36
2023-03-17T07:06:53.331Z,8.36
2023-03-17T07:07:53.391Z,8.36
2023-03-17T07:08:53.324Z,8.29
2023-03-17T07:09:53.305Z,8.30
2023-03-17T07:10:53.404Z,8.37
2023-03-17T07:11:53.276Z,8.50
2023-03-17T07:12:53.280Z,8.57
2023-03-17T07:13:53.263Z,8.60
2023-03-17T07:14:53.277Z,8.68
2023-03-17T07:15:55.297Z,8.79
2023-03-17T07:16:53.244Z,8.78
2023-03-17T07:17:53.246Z,8.84
2023-03-17T07:18:53.214Z,8.87
2023-03-17T07:19:53.198Z,8.88
2023-03-17T07:20:53.204Z,8.96
2023-03-17T07:21:53.271Z,9.05
2023-03-17T07:22:53.213Z,9.20
2023-03-17T07:23:53.170Z,9.31
2023-03-17T07:24:53.098Z,9.45
2023-03-17T07:25:53.186Z,9.49
2023-03-17T07:26:53.054Z,9.53
2023-03-17T07:27:53.055Z,9.64
2023-03-17T07:28:53.089Z,9.70
2023-03-17T07:29:53.113Z,9.75
2023-03-17T07:30:53.012Z,9.79
2023-03-17T07:31:53.023Z,9.82
2023-03-17T07:32:53.101Z,9.88
2023-03-17T07:33:53.312Z,9.96
2023-03-17T07:34:53.075Z,10.04
2023-03-17T07:35:53.123Z,10.14
2023-03-17T07:36:52.977Z,10.12
2023-03-17T07:37:52.964Z,10.15
2023-03-17T07:38:52.938Z,10.15
2023-03-17T07:39:52.951Z,10.14
2023-03-17T07:40:53.111Z,10.14
2023-03-17T07:41:52.973Z,10.21
2023-03-17T07:42:52.975Z,10.33
2023-03-17T07:43:53.017Z,10.34
2023-03-17T07:44:52.841Z,10.37
2023-03-17T07:45:52.940Z,10.39
2023-03-17T07:46:52.841Z,10.43
2023-03-17T07:47:52.826Z,10.52
2023-03-17T07:48:52.805Z,10.52
2023-03-17T07:49:52.844Z,10.43
2023-03-17T07:50:52.851Z,10.37
2023-03-17T07:51:52.778Z,10.37
2023-03-17T07:52:52.791Z,10.37
2023-03-17T07:53:52.711Z,10.42
2023-03-17T07:54:52.803Z,10.52
2023-03-17T07:55:52.698Z,10.51
2023-03-17T07:56:52.735Z,10.59
2023-03-17T07:57:52.739Z,10.70
2023-03-17T07:58:52.698Z,10.78
2023-03-17T07:59:59.689Z,10.94
2023-03-17T08:00:52.691Z,10.95
2023-03-17T08:01:52.642Z,10.92
2023-03-17T08:03:06.978Z,10.95
2023-03-17T08:03:53.618Z,11.06
2023-03-17T08:04:52.549Z,11.06
2023-03-17T08:05:52.551Z,11.03
2023-03-17T08:06:52.523Z,10.95
2023-03-17T08:07:52.550Z,10.81
2023-03-17T08:08:52.600Z,10.73
2023-03-17T08:09:52.489Z,10.63
2023-03-17T08:10:52.500Z,10.76
2023-03-17T08:11:52.507Z,10.77
2023-03-17T08:12:52.494Z,10.77
2023-03-17T08:13:52.462Z,10.84
2023-03-17T08:14:52.558Z,10.81
2023-03-17T08:15:52.511Z,10.78
2023-03-17T08:16:52.527Z,10.77
2023-03-17T08:17:52.408Z,10.78
2023-03-17T08:18:52.556Z,10.77
2023-03-17T08:19:52.396Z,10.89
2023-03-17T08:20:52.410Z,10.95
2023-03-17T08:21:52.557Z,10.84
2023-03-17T08:22:52.413Z,10.89
2023-03-17T08:23:52.380Z,10.96
2023-03-17T08:24:52.363Z,10.92
2023-03-17T08:25:52.425Z,10.98
2023-03-17T08:26:52.280Z,11.02
2023-03-17T08:27:52.345Z,11.11
2023-03-17T08:28:52.331Z,11.03
2023-03-17T08:29:52.268Z,11.03
2023-03-17T08:30:52.348Z,11.03
2023-03-17T08:31:52.489Z,11.11
2023-03-17T08:32:52.335Z,11.19
2023-03-17T08:33:52.181Z,11.25
2023-03-17T08:34:52.342Z,11.20
2023-03-17T08:35:52.201Z,11.27
2023-03-17T08:36:52.201Z,11.31
2023-03-17T08:37:54.382Z,11.39
2023-03-17T08:38:52.158Z,11.52
2023-03-17T08:39:52.139Z,11.52
2023-03-17T08:40:52.253Z,11.54
2023-03-17T08:41:52.205Z,11.62
2023-03-17T08:42:52.091Z,11.65
2023-03-17T08:43:55.101Z,11.68
2023-03-17T08:44:52.094Z,11.61
2023-03-17T08:45:52.051Z,11.54
2023-03-17T08:46:52.011Z,11.61
2023-03-17T08:47:52.069Z,11.68
2023-03-17T08:48:51.938Z,11.72
2023-03-17T08:49:52.008Z,11.80
2023-03-17T08:50:52.037Z,11.83
2023-03-17T08:51:52.041Z,11.82
2023-03-17T08:52:52.088Z,11.77
2023-03-17T08:53:52.012Z,11.75
2023-03-17T08:54:51.904Z,11.67
2023-03-17T08:55:51.913Z,11.65
2023-03-17T08:56:55.508Z,11.67
2023-03-17T08:57:51.874Z,11.70
2023-03-17T08:58:51.827Z,11.70
2023-03-17T08:59:52.030Z,11.72
2023-03-17T09:00:51.810Z,11.72
2023-03-17T09:01:51.879Z,11.70
2023-03-17T09:02:51.959Z,11.80
2023-03-17T09:03:51.759Z,11.89
2023-03-17T09:04:51.869Z,11.94
2023-03-17T09:05:56.685Z,11.97
2023-03-17T09:07:02.332Z,12.01
2023-03-17T09:07:52.744Z,12.02
2023-03-17T09:08:51.694Z,11.99
2023-03-17T09:09:51.725Z,11.99
2023-03-17T09:10:51.764Z,11.96
2023-03-17T09:11:51.687Z,11.89
2023-03-17T09:12:51.809Z,11.96
2023-03-17T09:13:51.698Z,12.08
2023-03-17T09:14:51.730Z,12.21
2023-03-17T09:15:52.187Z,12.26
2023-03-17T09:16:51.616Z,12.30
2023-03-17T09:17:51.621Z,12.39
2023-03-17T09:18:51.758Z,12.42
2023-03-17T09:19:51.630Z,12.44
2023-03-17T09:20:51.633Z,12.49
2023-03-17T09:21:51.641Z,12.57
2023-03-17T09:22:51.691Z,12.54
2023-03-17T09:23:51.610Z,12.62
2023-03-17T09:24:51.515Z,12.66
2023-03-17T09:25:51.721Z,12.64
2023-03-17T09:26:51.523Z,12.62
2023-03-17T09:27:51.537Z,12.75
2023-03-17T09:28:51.480Z,12.85
2023-03-17T09:29:51.497Z,12.89
2023-03-17T09:30:51.491Z,13.00
2023-03-17T09:31:51.405Z,13.12
2023-03-17T09:32:51.533Z,13.24
2023-03-17T09:33:51.331Z,13.24
2023-03-17T09:34:51.741Z,13.18
2023-03-17T09:35:51.463Z,13.17
2023-03-17T09:36:51.329Z,13.22
2023-03-17T09:37:51.314Z,13.32
2023-03-17T09:38:53.424Z,13.41
2023-03-17T09:39:51.318Z,13.46
2023-03-17T09:40:51.265Z,13.46
2023-03-17T09:41:51.351Z,13.49
2023-03-17T09:42:56.509Z,13.54
2023-03-17T09:43:51.187Z,13.59
2023-03-17T09:44:51.332Z,13.70
2023-03-17T09:45:51.198Z,13.80
2023-03-17T09:46:51.384Z,13.87
2023-03-17T09:47:51.190Z,13.94
2023-03-17T09:48:51.152Z,13.98
2023-03-17T09:49:51.131Z,14.02
2023-03-17T09:50:51.182Z,14.07
2023-03-17T09:51:51.085Z,14.10
2023-03-17T09:52:51.513Z,14.02
2023-03-17T09:53:51.107Z,14.13
2023-03-17T09:54:51.058Z,14.16
2023-03-17T09:55:51.028Z,14.21
2023-03-17T09:56:51.027Z,14.25
2023-03-17T09:57:51.029Z,14.28
2023-03-17T09:58:51.399Z,14.35
2023-03-17T09:59:50.992Z,14.46
2023-03-17T10:00:50.988Z,14.44
2023-03-17T10:01:51.074Z,14.39
2023-03-17T10:02:50.960Z,14.39
2023-03-17T10:03:50.989Z,14.49
2023-03-17T10:04:50.963Z,14.54
2023-03-17T10:05:51.069Z,14.67
2023-03-17T10:06:50.898Z,14.83
2023-03-17T10:07:50.966Z,14.95
2023-03-17T10:08:50.941Z,15.01
2023-03-17T10:09:50.873Z,15.12
2023-03-17T10:10:50.930Z,15.21
2023-03-17T10:11:50.881Z,15.17
2023-03-17T10:12:50.840Z,15.11
2023-03-17T10:13:50.872Z,15.06
2023-03-17T10:14:51.391Z,15.09
2023-03-17T10:15:50.829Z,15.12
2023-03-17T10:16:50.821Z,15.20
2023-03-17T10:17:50.779Z,15.27
2023-03-17T10:18:50.742Z,15.41
2023-03-17T10:19:50.773Z,15.54
2023-03-17T10:20:51.711Z,15.61
2023-03-17T10:21:50.686Z,15.60
2023-03-17T10:22:50.695Z,15.57
2023-03-17T10:23:50.657Z,15.57
2023-03-17T10:24:50.698Z,15.66
2023-03-17T10:25:50.663Z,15.70
2023-03-17T10:26:50.638Z,15.76
2023-03-17T10:27:50.592Z,15.84
2023-03-17T10:28:50.676Z,15.85
2023-03-17T10:29:50.648Z,15.82
2023-03-17T10:30:50.613Z,15.85
2023-03-17T10:31:50.700Z,15.99
2023-03-17T10:32:50.627Z,16.04
2023-03-17T10:33:50.532Z,16.09
2023-03-17T10:34:50.513Z,16.03
2023-03-17T10:35:50.594Z,16.14
2023-03-17T10:36:50.518Z,16.12
2023-03-17T10:37:52.002Z,16.20
2023-03-17T10:38:50.443Z,16.25
2023-03-17T10:39:50.449Z,16.27
2023-03-17T10:40:50.510Z,16.35
2023-03-17T10:41:50.426Z,16.41
2023-03-17T10:42:50.546Z,16.52
2023-03-17T10:43:50.420Z,16.58
2023-03-17T10:44:50.405Z,16.59
2023-03-17T10:45:50.522Z,16.60
2023-03-17T10:46:50.506Z,16.70
2023-03-17T10:48:19.007Z,16.83
2023-03-17T10:48:50.343Z,16.73
2023-03-17T10:49:50.395Z,16.86
2023-03-17T10:50:52.198Z,16.99
2023-03-17T10:51:53.348Z,16.89
2023-03-17T10:52:50.341Z,16.60
2023-03-17T10:53:50.304Z,16.60
2023-03-17T10:54:50.281Z,16.73
2023-03-17T10:55:50.408Z,16.88
2023-03-17T10:56:54.695Z,16.96
2023-03-17T10:57:50.302Z,17.06
2023-03-17T10:58:50.333Z,17.20
2023-03-17T10:59:50.206Z,17.35
2023-03-17T11:00:50.380Z,17.38
2023-03-17T11:01:50.201Z,17.40
2023-03-17T11:02:50.188Z,17.35
2023-03-17T11:03:50.200Z,17.30
2023-03-17T11:04:50.243Z,17.41
2023-03-17T11:05:50.072Z,17.48
2023-03-17T11:06:50.173Z,17.57
2023-03-17T11:07:50.128Z,17.69
2023-03-17T11:09:00.435Z,17.84
2023-03-17T11:09:51.101Z,17.89
2023-03-17T11:10:50.041Z,18.03
2023-03-17T11:11:50.185Z,18.06
2023-03-17T11:12:50.181Z,18.03
2023-03-17T11:13:50.126Z,18.02
2023-03-17T11:14:50.072Z,18.06
2023-03-17T11:15:50.322Z,18.19
2023-03-17T11:16:49.996Z,18.24
2023-03-17T11:17:50.033Z,18.34
2023-03-17T11:18:50.041Z,18.31
2023-03-17T11:19:49.886Z,18.21
2023-03-17T11:20:49.908Z,18.25
2023-03-17T11:21:50.088Z,18.34
2023-03-17T11:22:49.852Z,18.40
2023-03-17T11:23:49.856Z,18.47
2023-03-17T11:24:49.875Z,18.44
2023-03-17T11:25:49.872Z,18.49
2023-03-17T11:26:49.798Z,18.58
2023-03-17T11:27:49.883Z,18.73
2023-03-17T11:28:49.831Z,18.80
2023-03-17T11:29:49.850Z,18.84
2023-03-17T11:30:49.802Z,18.97
2023-03-17T11:31:49.817Z,19.06
2023-03-17T11:32:49.815Z,19.06
2023-03-17T11:33:49.736Z,19.08
2023-03-17T11:34:49.754Z,19.18
2023-03-17T11:35:49.727Z,19.24
2023-03-17T11:36:49.712Z,19.38
2023-03-17T11:37:49.694Z,19.43
2023-03-17T11:38:49.648Z,19.39
2023-03-17T11:39:49.691Z,19.33
2023-03-17T11:40:49.619Z,19.29
2023-03-17T11:41:49.587Z,19.15
2023-03-17T11:42:49.682Z,19.06
2023-03-17T11:43:49.616Z,18.97
2023-03-17T11:44:49.591Z,18.99
2023-03-17T11:45:49.648Z,19.02
2023-03-17T11:46:49.585Z,19.10
2023-03-17T11:47:49.538Z,19.13
2023-03-17T11:48:49.555Z,19.15
2023-03-17T11:49:49.497Z,19.21
2023-03-17T11:50:49.533Z,19.14
2023-03-17T11:51:49.551Z,19.17
2023-03-17T11:52:49.486Z,19.11
2023-03-17T11:53:49.485Z,19.05
2023-03-17T11:54:49.513Z,19.10
2023-03-17T11:55:49.517Z,19.06
2023-03-17T11:56:49.441Z,19.13
2023-03-17T11:57:49.578Z,19.23
2023-03-17T11:58:49.451Z,19.29
2023-03-17T11:59:49.490Z,19.25
2023-03-17T12:00:49.447Z,19.28
2023-03-17T12:01:49.432Z,19.40
2023-03-17T12:02:49.423Z,19.46
2023-03-17T12:03:49.626Z,19.54
2023-03-17T12:04:49.452Z,19.61
2023-03-17T12:05:49.448Z,19.61
2023-03-17T12:06:49.352Z,19.65
2023-03-17T12:07:49.403Z,19.60
2023-03-17T12:08:49.374Z,19.68
2023-03-17T12:09:49.303Z,19.72
2023-03-17T12:10:49.307Z,19.73
2023-03-17T12:11:49.366Z,19.55
2023-03-17T12:12:49.283Z,19.58
2023-03-17T12:13:49.279Z,19.70
2023-03-17T12:14:49.260Z,19.69
2023-03-17T12:15:49.288Z,19.54
2023-03-17T12:16:49.231Z,19.47
2023-03-17T12:17:49.265Z,19.48
2023-03-17T12:18:49.233Z,19.60
2023-03-17T12:19:49.265Z,19.65
2023-03-17T12:20:49.149Z,19.75
2023-03-17T12:21:49.132Z,19.93
2023-03-17T12:22:49.162Z,19.88
2023-03-17T12:23:49.167Z,19.88
2023-03-17T12:24:49.172Z,19.93
2023-03-17T12:25:49.191Z,20.00
2023-03-17T12:26:49.151Z,20.09
2023-03-17T12:27:49.115Z,20.25
2023-03-17T12:28:49.027Z,20.38
2023-03-17T12:29:49.095Z,20.21
2023-03-17T12:30:49.152Z,20.05
2023-03-17T12:31:49.110Z,20.12
2023-03-17T12:32:49.024Z,20.12
2023-03-17T12:33:49.014Z,20.08
2023-03-17T12:34:48.976Z,20.13
2023-03-17T12:35:49.017Z,20.18
2023-03-17T12:36:49.001Z,20.15
2023-03-17T12:37:49.263Z,20.06
2023-03-17T12:38:48.966Z,20.08
2023-03-17T12:39:48.910Z,20.18
2023-03-17T12:40:48.989Z,20.18
2023-03-17T12:41:48.916Z,20.13
2023-03-17T12:42:48.894Z,20.10
2023-03-17T12:43:48.936Z,20.12
2023-03-17T12:44:48.864Z,20.12
2023-03-17T12:45:48.852Z,20.10
2023-03-17T12:46:48.927Z,20.08
2023-03-17T12:47:48.797Z,20.12
2023-03-17T12:48:48.803Z,20.30
2023-03-17T12:49:48.869Z,20.23
2023-03-17T12:50:48.764Z,20.06
2023-03-17T12:51:48.712Z,20.09
2023-03-17T12:52:48.859Z,20.27
2023-03-17T12:53:48.801Z,20.27
2023-03-17T12:54:49.605Z,20.28
2023-03-17T12:55:48.828Z,20.31
2023-03-17T12:56:48.670Z,20.25
2023-03-17T12:57:48.689Z,20.38
2023-03-17T12:58:49.683Z,20.59
2023-03-17T12:59:48.618Z,20.72
2023-03-17T13:00:48.718Z,20.58
2023-03-17T13:01:48.703Z,20.58
2023-03-17T13:02:48.667Z,20.65
2023-03-17T13:03:49.621Z,20.35
2023-03-17T13:04:48.602Z,20.35
2023-03-17T13:05:48.541Z,20.38
2023-03-17T13:06:48.593Z,20.35
2023-03-17T13:07:48.551Z,20.27